sensor_id;sensor_type;location;lat;lon;timestamp;P1;durP1;ratioP1;P2;durP2;ratioP2
13255;SDS011;37913;48.370;10.930;2023-05-10T00:02:17;78.63;;;37.95;;
13255;SDS011;37913;48.370;10.930;2023-05-10T00:04:44;96.82;;;41.65;;
13255;SDS011;37913;48.370;10.930;2023-05-10T00:07:11;87.20;;;39.45;;
13255;SDS011;37913;48.370;10.930;2023-05-10T00:09:39;84.00;;;38.47;;
13255;SDS011;37913;48.370;10.930;2023-05-10T00:12:06;86.32;;;40.00;;
13255;SDS011;37913;48.370;10.930;2023-05-10T00:14:33;90.43;;;40.05;;
13255;SDS011;37913;48.370;10.930;2023-05-10T00:17:00;86.82;;;39.10;;
13255;SDS011;37913;48.370;10.930;2023-05-10T00:19:27;93.68;;;41.17;;
13255;SDS011;37913;48.370;10.930;2023-05-10T00:21:54;91.68;;;40.10;;
13255;SDS011;37913;48.370;10.930;2023-05-10T00:24:21;93.53;;;40.97;;
13255;SDS011;37913;48.370;10.930;2023-05-10T00:26:49;87.03;;;39.80;;
13255;SDS011;37913;48.370;10.930;2023-05-10T00:29:16;82.75;;;38.53;;
13255;SDS011;37913;48.370;10.930;2023-05-10T00:31:43;100.40;;;41.67;;
13255;SDS011;37913;48.370;10.930;2023-05-10T00:34:10;85.68;;;39.42;;
13255;SDS011;37913;48.370;10.930;2023-05-10T00:36:37;80.95;;;38.58;;
13255;SDS011;37913;48.370;10.930;2023-05-10T00:39:04;86.10;;;39.17;;
13255;SDS011;37913;48.370;10.930;2023-05-10T00:41:31;80.97;;;38.00;;
13255;SDS011;37913;48.370;10.930;2023-05-10T00:44:03;137.93;;;49.00;;
13255;SDS011;37913;48.370;10.930;2023-05-10T00:46:30;79.03;;;37.50;;
13255;SDS011;37913;48.370;10.930;2023-05-10T00:48:57;74.75;;;37.33;;
13255;SDS011;37913;48.370;10.930;2023-05-10T00:51:25;80.55;;;37.90;;
13255;SDS011;37913;48.370;10.930;2023-05-10T00:53:52;88.13;;;39.70;;
13255;SDS011;37913;48.370;10.930;2023-05-10T00:56:20;87.90;;;39.70;;
13255;SDS011;37913;48.370;10.930;2023-05-10T00:58:48;82.60;;;38.60;;
13255;SDS011;37913;48.370;10.930;2023-05-10T01:01:16;81.25;;;37.80;;
13255;SDS011;37913;48.370;10.930;2023-05-10T01:03:43;85.93;;;38.85;;
13255;SDS011;37913;48.370;10.930;2023-05-10T01:06:11;79.93;;;37.28;;
13255;SDS011;37913;48.370;10.930;2023-05-10T01:08:39;92.07;;;39.90;;
13255;SDS011;37913;48.370;10.930;2023-05-10T01:11:06;81.53;;;37.47;;
13255;SDS011;37913;48.370;10.930;2023-05-10T01:13:33;91.72;;;39.25;;
13255;SDS011;37913;48.370;10.930;2023-05-10T01:16:02;82.28;;;37.47;;
13255;SDS011;37913;48.370;10.930;2023-05-10T01:18:33;86.45;;;38.10;;
13255;SDS011;37913;48.370;10.930;2023-05-10T01:21:07;101.93;;;41.45;;
13255;SDS011;37913;48.370;10.930;2023-05-10T01:27:11;85.82;;;38.20;;
13255;SDS011;37913;48.370;10.930;2023-05-10T01:32:51;86.95;;;37.97;;
13255;SDS011;37913;48.370;10.930;2023-05-10T01:35:26;86.15;;;38.05;;
13255;SDS011;37913;48.370;10.930;2023-05-10T01:37:59;92.50;;;38.92;;
13255;SDS011;37913;48.370;10.930;2023-05-10T01:40:35;78.22;;;36.55;;
13255;SDS011;37913;48.370;10.930;2023-05-10T01:43:07;79.35;;;36.83;;
13255;SDS011;37913;48.370;10.930;2023-05-10T01:45:39;88.38;;;38.13;;
13255;SDS011;37913;48.370;10.930;2023-05-10T01:48:14;82.03;;;37.30;;
13255;SDS011;37913;48.370;10.930;2023-05-10T01:50:43;84.63;;;37.83;;
13255;SDS011;37913;48.370;10.930;2023-05-10T01:53:11;83.22;;;37.55;;
13255;SDS011;37913;48.370;10.930;2023-05-10T01:55:51;92.32;;;38.80;;
13255;SDS011;37913;48.370;10.930;2023-05-10T01:58:21;80.57;;;37.10;;
13255;SDS011;37913;48.370;10.930;2023-05-10T02:00:51;84.43;;;37.40;;
13255;SDS011;37913;48.370;10.930;2023-05-10T02:03:22;91.18;;;39.33;;
13255;SDS011;37913;48.370;10.930;2023-05-10T02:05:51;81.07;;;37.17;;
13255;SDS011;37913;48.370;10.930;2023-05-10T02:08:20;79.78;;;36.63;;
13255;SDS011;37913;48.370;10.930;2023-05-10T02:10:48;111.00;;;42.08;;
13255;SDS011;37913;48.370;10.930;2023-05-10T02:13:17;81.47;;;36.58;;
13255;SDS011;37913;48.370;10.930;2023-05-10T02:15:45;86.15;;;37.03;;
13255;SDS011;37913;48.370;10.930;2023-05-10T02:18:14;88.03;;;37.97;;
13255;SDS011;37913;48.370;10.930;2023-05-10T02:20:44;86.35;;;37.65;;
13255;SDS011;37913;48.370;10.930;2023-05-10T02:23:13;81.93;;;36.63;;
13255;SDS011;37913;48.370;10.930;2023-05-10T02:25:40;88.50;;;38.42;;
13255;SDS011;37913;48.370;10.930;2023-05-10T02:28:09;80.60;;;36.78;;
13255;SDS011;37913;48.370;10.930;2023-05-10T02:30:38;76.10;;;35.65;;
13255;SDS011;37913;48.370;10.930;2023-05-10T02:33:05;79.93;;;36.33;;
13255;SDS011;37913;48.370;10.930;2023-05-10T02:35:33;75.18;;;35.60;;
13255;SDS011;37913;48.370;10.930;2023-05-10T02:38:02;73.15;;;35.08;;
13255;SDS011;37913;48.370;10.930;2023-05-10T02:40:31;74.18;;;35.58;;
13255;SDS011;37913;48.370;10.930;2023-05-10T02:42:59;69.72;;;34.38;;
13255;SDS011;37913;48.370;10.930;2023-05-10T02:45:29;72.57;;;34.95;;
13255;SDS011;37913;48.370;10.930;2023-05-10T02:47:58;88.38;;;38.00;;
13255;SDS011;37913;48.370;10.930;2023-05-10T02:50:27;82.50;;;36.28;;
13255;SDS011;37913;48.370;10.930;2023-05-10T02:52:59;84.28;;;36.95;;
13255;SDS011;37913;48.370;10.930;2023-05-10T02:55:31;91.97;;;38.83;;
13255;SDS011;37913;48.370;10.930;2023-05-10T02:58:01;80.55;;;36.05;;
13255;SDS011;37913;48.370;10.930;2023-05-10T03:00:29;77.53;;;35.67;;
13255;SDS011;37913;48.370;10.930;2023-05-10T03:02:57;88.20;;;37.53;;
13255;SDS011;37913;48.370;10.930;2023-05-10T03:05:24;85.65;;;37.28;;
13255;SDS011;37913;48.370;10.930;2023-05-10T03:07:51;78.78;;;35.50;;
13255;SDS011;37913;48.370;10.930;2023-05-10T03:10:19;80.60;;;36.03;;
13255;SDS011;37913;48.370;10.930;2023-05-10T03:12:55;79.90;;;35.90;;
13255;SDS011;37913;48.370;10.930;2023-05-10T03:15:37;76.57;;;35.10;;
13255;SDS011;37913;48.370;10.930;2023-05-10T03:18:15;78.97;;;35.45;;
13255;SDS011;37913;48.370;10.930;2023-05-10T03:20:46;80.30;;;35.67;;
13255;SDS011;37913;48.370;10.930;2023-05-10T03:23:18;82.68;;;36.38;;
13255;SDS011;37913;48.370;10.930;2023-05-10T03:25:49;88.72;;;37.90;;
13255;SDS011;37913;48.370;10.930;2023-05-10T03:28:18;82.88;;;36.08;;
13255;SDS011;37913;48.370;10.930;2023-05-10T03:30:47;83.13;;;36.33;;
13255;SDS011;37913;48.370;10.930;2023-05-10T03:33:15;83.25;;;35.83;;
13255;SDS011;37913;48.370;10.930;2023-05-10T03:35:43;85.57;;;36.67;;
13255;SDS011;37913;48.370;10.930;2023-05-10T03:38:10;79.57;;;35.65;;
13255;SDS011;37913;48.370;10.930;2023-05-10T03:40:38;75.53;;;34.67;;
13255;SDS011;37913;48.370;10.930;2023-05-10T03:43:05;86.32;;;37.05;;
13255;SDS011;37913;48.370;10.930;2023-05-10T03:45:33;78.93;;;35.83;;
13255;SDS011;37913;48.370;10.930;2023-05-10T03:48:00;77.38;;;35.13;;
13255;SDS011;37913;48.370;10.930;2023-05-10T03:50:27;79.80;;;35.72;;
13255;SDS011;37913;48.370;10.930;2023-05-10T03:52:54;76.55;;;35.22;;
13255;SDS011;37913;48.370;10.930;2023-05-10T03:55:22;79.22;;;35.95;;
13255;SDS011;37913;48.370;10.930;2023-05-10T03:57:49;79.47;;;35.60;;
13255;SDS011;37913;48.370;10.930;2023-05-10T04:00:16;77.57;;;35.88;;
13255;SDS011;37913;48.370;10.930;2023-05-10T04:02:44;77.90;;;35.78;;
13255;SDS011;37913;48.370;10.930;2023-05-10T04:05:11;75.93;;;35.30;;
13255;SDS011;37913;48.370;10.930;2023-05-10T04:07:38;85.28;;;36.83;;
13255;SDS011;37913;48.370;10.930;2023-05-10T04:10:05;85.75;;;36.83;;
13255;SDS011;37913;48.370;10.930;2023-05-10T04:12:33;80.53;;;35.33;;
13255;SDS011;37913;48.370;10.930;2023-05-10T04:15:00;99.40;;;39.15;;
13255;SDS011;37913;48.370;10.930;2023-05-10T04:17:27;169.98;;;50.90;;
13255;SDS011;37913;48.370;10.930;2023-05-10T04:19:55;85.80;;;36.72;;
13255;SDS011;37913;48.370;10.930;2023-05-10T04:22:22;84.25;;;36.25;;
13255;SDS011;37913;48.370;10.930;2023-05-10T04:24:49;90.25;;;37.35;;
13255;SDS011;37913;48.370;10.930;2023-05-10T04:27:16;86.47;;;36.80;;
13255;SDS011;37913;48.370;10.930;2023-05-10T04:29:43;87.25;;;36.30;;
13255;SDS011;37913;48.370;10.930;2023-05-10T04:32:10;83.05;;;36.05;;
13255;SDS011;37913;48.370;10.930;2023-05-10T04:34:37;74.32;;;34.72;;
13255;SDS011;37913;48.370;10.930;2023-05-10T04:37:06;77.38;;;34.85;;
13255;SDS011;37913;48.370;10.930;2023-05-10T04:39:33;86.50;;;36.72;;
13255;SDS011;37913;48.370;10.930;2023-05-10T04:42:00;91.55;;;37.55;;
13255;SDS011;37913;48.370;10.930;2023-05-10T04:44:30;85.15;;;36.92;;
13255;SDS011;37913;48.370;10.930;2023-05-10T04:46:57;85.80;;;37.03;;
13255;SDS011;37913;48.370;10.930;2023-05-10T04:49:24;78.20;;;35.35;;
13255;SDS011;37913;48.370;10.930;2023-05-10T04:51:51;73.13;;;34.55;;
13255;SDS011;37913;48.370;10.930;2023-05-10T04:54:20;88.15;;;37.63;;
13255;SDS011;37913;48.370;10.930;2023-05-10T04:56:46;97.43;;;39.92;;
13255;SDS011;37913;48.370;10.930;2023-05-10T04:59:15;76.85;;;35.55;;
13255;SDS011;37913;48.370;10.930;2023-05-10T05:01:43;85.05;;;37.40;;
13255;SDS011;37913;48.370;10.930;2023-05-10T05:04:10;89.00;;;37.90;;
13255;SDS011;37913;48.370;10.930;2023-05-10T05:06:37;85.47;;;36.67;;
13255;SDS011;37913;48.370;10.930;2023-05-10T05:09:04;100.63;;;39.80;;
13255;SDS011;37913;48.370;10.930;2023-05-10T05:11:32;91.57;;;37.70;;
13255;SDS011;37913;48.370;10.930;2023-05-10T05:13:59;84.45;;;36.53;;
13255;SDS011;37913;48.370;10.930;2023-05-10T05:16:26;89.80;;;37.28;;
13255;SDS011;37913;48.370;10.930;2023-05-10T05:18:53;78.75;;;35.63;;
13255;SDS011;37913;48.370;10.930;2023-05-10T05:21:20;90.88;;;37.13;;
13255;SDS011;37913;48.370;10.930;2023-05-10T05:23:47;84.38;;;36.17;;
13255;SDS011;37913;48.370;10.930;2023-05-10T05:26:14;79.30;;;35.47;;
13255;SDS011;37913;48.370;10.930;2023-05-10T05:28:43;99.15;;;39.05;;
13255;SDS011;37913;48.370;10.930;2023-05-10T05:31:10;89.20;;;37.13;;
13255;SDS011;37913;48.370;10.930;2023-05-10T05:33:37;88.22;;;37.15;;
13255;SDS011;37913;48.370;10.930;2023-05-10T05:36:04;90.50;;;38.75;;
13255;SDS011;37913;48.370;10.930;2023-05-10T05:38:31;84.93;;;37.13;;
13255;SDS011;37913;48.370;10.930;2023-05-10T05:40:59;85.28;;;37.05;;
13255;SDS011;37913;48.370;10.930;2023-05-10T05:43:26;89.78;;;38.15;;
13255;SDS011;37913;48.370;10.930;2023-05-10T05:45:54;99.32;;;39.88;;
13255;SDS011;37913;48.370;10.930;2023-05-10T05:48:22;90.05;;;38.42;;
13255;SDS011;37913;48.370;10.930;2023-05-10T05:50:49;82.55;;;36.78;;
13255;SDS011;37913;48.370;10.930;2023-05-10T05:53:20;80.28;;;36.40;;
13255;SDS011;37913;48.370;10.930;2023-05-10T05:55:53;92.75;;;38.60;;
13255;SDS011;37913;48.370;10.930;2023-05-10T05:58:21;105.70;;;41.35;;
13255;SDS011;37913;48.370;10.930;2023-05-10T06:00:48;93.80;;;38.67;;
13255;SDS011;37913;48.370;10.930;2023-05-10T06:03:16;84.00;;;36.92;;
13255;SDS011;37913;48.370;10.930;2023-05-10T06:05:43;83.32;;;37.20;;
13255;SDS011;37913;48.370;10.930;2023-05-10T06:08:10;88.70;;;38.15;;
13255;SDS011;37913;48.370;10.930;2023-05-10T06:10:37;86.68;;;37.45;;
13255;SDS011;37913;48.370;10.930;2023-05-10T06:13:04;102.85;;;40.58;;
13255;SDS011;37913;48.370;10.930;2023-05-10T06:15:31;76.55;;;35.53;;
13255;SDS011;37913;48.370;10.930;2023-05-10T06:17:58;90.30;;;40.53;;
13255;SDS011;37913;48.370;10.930;2023-05-10T06:20:27;81.53;;;36.70;;
13255;SDS011;37913;48.370;10.930;2023-05-10T06:22:53;79.30;;;36.88;;
13255;SDS011;37913;48.370;10.930;2023-05-10T06:25:20;85.70;;;38.33;;
13255;SDS011;37913;48.370;10.930;2023-05-10T06:27:47;82.50;;;37.40;;
13255;SDS011;37913;48.370;10.930;2023-05-10T06:30:14;75.38;;;36.15;;
13255;SDS011;37913;48.370;10.930;2023-05-10T06:32:41;77.57;;;36.20;;
13255;SDS011;37913;48.370;10.930;2023-05-10T06:35:10;91.70;;;39.28;;
13255;SDS011;37913;48.370;10.930;2023-05-10T06:37:38;89.03;;;38.15;;
13255;SDS011;37913;48.370;10.930;2023-05-10T06:40:06;80.07;;;36.47;;
13255;SDS011;37913;48.370;10.930;2023-05-10T06:42:34;80.10;;;36.13;;
13255;SDS011;37913;48.370;10.930;2023-05-10T06:45:01;90.03;;;38.33;;
13255;SDS011;37913;48.370;10.930;2023-05-10T06:47:28;89.68;;;37.72;;
13255;SDS011;37913;48.370;10.930;2023-05-10T06:49:55;86.10;;;38.35;;
13255;SDS011;37913;48.370;10.930;2023-05-10T06:52:22;85.50;;;37.88;;
13255;SDS011;37913;48.370;10.930;2023-05-10T06:54:50;93.47;;;39.00;;
13255;SDS011;37913;48.370;10.930;2023-05-10T06:57:17;92.32;;;39.15;;
13255;SDS011;37913;48.370;10.930;2023-05-10T06:59:45;93.03;;;39.75;;
13255;SDS011;37913;48.370;10.930;2023-05-10T07:02:12;86.22;;;39.00;;
13255;SDS011;37913;48.370;10.930;2023-05-10T07:04:41;89.53;;;38.92;;
13255;SDS011;37913;48.370;10.930;2023-05-10T07:07:10;89.60;;;39.40;;
13255;SDS011;37913;48.370;10.930;2023-05-10T07:09:36;80.80;;;38.15;;
13255;SDS011;37913;48.370;10.930;2023-05-10T07:12:05;92.97;;;40.42;;
13255;SDS011;37913;48.370;10.930;2023-05-10T07:14:32;113.10;;;44.53;;
13255;SDS011;37913;48.370;10.930;2023-05-10T07:16:59;91.57;;;40.67;;
13255;SDS011;37913;48.370;10.930;2023-05-10T07:19:26;89.70;;;40.92;;
13255;SDS011;37913;48.370;10.930;2023-05-10T07:21:54;93.88;;;40.80;;
13255;SDS011;37913;48.370;10.930;2023-05-10T07:24:21;78.03;;;38.30;;
13255;SDS011;37913;48.370;10.930;2023-05-10T07:26:48;87.63;;;40.55;;
13255;SDS011;37913;48.370;10.930;2023-05-10T07:29:16;89.70;;;41.33;;
13255;SDS011;37913;48.370;10.930;2023-05-10T07:31:43;84.55;;;40.28;;
13255;SDS011;37913;48.370;10.930;2023-05-10T07:34:10;93.93;;;41.47;;
13255;SDS011;37913;48.370;10.930;2023-05-10T07:36:37;88.65;;;40.53;;
13255;SDS011;37913;48.370;10.930;2023-05-10T07:39:04;92.82;;;41.33;;
13255;SDS011;37913;48.370;10.930;2023-05-10T07:41:34;84.95;;;40.03;;
13255;SDS011;37913;48.370;10.930;2023-05-10T07:44:02;82.68;;;39.50;;
13255;SDS011;37913;48.370;10.930;2023-05-10T07:46:31;90.28;;;40.70;;
13255;SDS011;37913;48.370;10.930;2023-05-10T07:48:58;83.85;;;40.13;;
13255;SDS011;37913;48.370;10.930;2023-05-10T07:51:25;95.55;;;42.83;;
13255;SDS011;37913;48.370;10.930;2023-05-10T07:53:53;94.15;;;42.38;;
13255;SDS011;37913;48.370;10.930;2023-05-10T07:56:21;80.80;;;40.08;;
13255;SDS011;37913;48.370;10.930;2023-05-10T07:58:50;88.93;;;42.47;;
13255;SDS011;37913;48.370;10.930;2023-05-10T08:01:17;90.55;;;42.33;;
13255;SDS011;37913;48.370;10.930;2023-05-10T08:03:46;87.47;;;41.75;;
13255;SDS011;37913;48.370;10.930;2023-05-10T08:06:13;74.82;;;39.38;;
13255;SDS011;37913;48.370;10.930;2023-05-10T08:08:41;96.57;;;42.95;;
13255;SDS011;37913;48.370;10.930;2023-05-10T08:11:08;90.28;;;41.42;;
13255;SDS011;37913;48.370;10.930;2023-05-10T08:13:35;96.38;;;42.90;;
13255;SDS011;37913;48.370;10.930;2023-05-10T08:16:02;92.60;;;42.17;;
13255;SDS011;37913;48.370;10.930;2023-05-10T08:18:29;94.65;;;42.45;;
13255;SDS011;37913;48.370;10.930;2023-05-10T08:20:57;86.80;;;41.67;;
13255;SDS011;37913;48.370;10.930;2023-05-10T08:23:24;89.30;;;42.47;;
13255;SDS011;37913;48.370;10.930;2023-05-10T08:25:51;85.57;;;41.20;;
13255;SDS011;37913;48.370;10.930;2023-05-10T08:28:18;89.35;;;42.58;;
13255;SDS011;37913;48.370;10.930;2023-05-10T08:30:45;93.10;;;44.05;;
13255;SDS011;37913;48.370;10.930;2023-05-10T08:33:12;104.50;;;46.75;;
13255;SDS011;37913;48.370;10.930;2023-05-10T08:35:39;90.22;;;44.08;;
13255;SDS011;37913;48.370;10.930;2023-05-10T08:38:07;83.80;;;42.95;;
13255;SDS011;37913;48.370;10.930;2023-05-10T08:40:34;77.88;;;41.80;;
13255;SDS011;37913;48.370;10.930;2023-05-10T08:43:05;85.80;;;42.28;;
13255;SDS011;37913;48.370;10.930;2023-05-10T08:45:33;88.32;;;42.85;;
13255;SDS011;37913;48.370;10.930;2023-05-10T08:48:04;85.05;;;41.60;;
13255;SDS011;37913;48.370;10.930;2023-05-10T08:50:34;84.47;;;40.38;;
13255;SDS011;37913;48.370;10.930;2023-05-10T08:53:04;85.00;;;40.85;;
13255;SDS011;37913;48.370;10.930;2023-05-10T08:55:33;91.03;;;41.53;;
13255;SDS011;37913;48.370;10.930;2023-05-10T08:58:01;92.45;;;41.92;;
13255;SDS011;37913;48.370;10.930;2023-05-10T09:00:29;94.60;;;42.42;;
13255;SDS011;37913;48.370;10.930;2023-05-10T09:02:57;86.68;;;41.03;;
13255;SDS011;37913;48.370;10.930;2023-05-10T09:05:24;87.68;;;41.13;;
13255;SDS011;37913;48.370;10.930;2023-05-10T09:07:51;86.80;;;40.75;;
13255;SDS011;37913;48.370;10.930;2023-05-10T09:10:18;93.63;;;42.80;;
13255;SDS011;37913;48.370;10.930;2023-05-10T09:12:48;95.57;;;44.45;;
13255;SDS011;37913;48.370;10.930;2023-05-10T09:15:16;84.97;;;42.25;;
13255;SDS011;37913;48.370;10.930;2023-05-10T09:17:45;98.13;;;44.97;;
13255;SDS011;37913;48.370;10.930;2023-05-10T09:20:12;97.55;;;44.67;;
13255;SDS011;37913;48.370;10.930;2023-05-10T09:22:39;87.10;;;42.47;;
13255;SDS011;37913;48.370;10.930;2023-05-10T09:25:07;90.93;;;42.70;;
13255;SDS011;37913;48.370;10.930;2023-05-10T09:27:36;87.95;;;42.05;;
13255;SDS011;37913;48.370;10.930;2023-05-10T09:30:06;88.90;;;42.35;;
13255;SDS011;37913;48.370;10.930;2023-05-10T09:32:36;100.65;;;44.05;;
13255;SDS011;37913;48.370;10.930;2023-05-10T09:35:07;91.85;;;42.80;;
13255;SDS011;37913;48.370;10.930;2023-05-10T09:37:35;82.15;;;41.17;;
13255;SDS011;37913;48.370;10.930;2023-05-10T09:40:04;89.05;;;43.85;;
13255;SDS011;37913;48.370;10.930;2023-05-10T09:42:33;87.22;;;44.17;;
13255;SDS011;37913;48.370;10.930;2023-05-10T09:45:01;106.55;;;47.58;;
13255;SDS011;37913;48.370;10.930;2023-05-10T09:47:30;90.75;;;44.45;;
13255;SDS011;37913;48.370;10.930;2023-05-10T09:49:58;87.93;;;43.40;;
13255;SDS011;37913;48.370;10.930;2023-05-10T09:52:28;93.40;;;43.72;;
13255;SDS011;37913;48.370;10.930;2023-05-10T09:54:55;106.22;;;45.03;;
13255;SDS011;37913;48.370;10.930;2023-05-10T09:57:23;94.53;;;42.65;;
13255;SDS011;37913;48.370;10.930;2023-05-10T09:59:51;99.07;;;43.83;;
13255;SDS011;37913;48.370;10.930;2023-05-10T10:02:19;96.25;;;42.50;;
13255;SDS011;37913;48.370;10.930;2023-05-10T10:04:50;88.38;;;41.05;;
13255;SDS011;37913;48.370;10.930;2023-05-10T10:07:21;92.18;;;42.10;;
13255;SDS011;37913;48.370;10.930;2023-05-10T10:09:50;100.55;;;43.53;;
13255;SDS011;37913;48.370;10.930;2023-05-10T10:12:18;91.05;;;41.65;;
13255;SDS011;37913;48.370;10.930;2023-05-10T10:14:46;105.07;;;44.10;;
13255;SDS011;37913;48.370;10.930;2023-05-10T10:17:15;106.78;;;43.95;;
13255;SDS011;37913;48.370;10.930;2023-05-10T10:19:43;89.72;;;40.50;;
13255;SDS011;37913;48.370;10.930;2023-05-10T10:22:13;114.28;;;46.20;;
13255;SDS011;37913;48.370;10.930;2023-05-10T10:24:41;88.95;;;40.22;;
13255;SDS011;37913;48.370;10.930;2023-05-10T10:27:11;80.40;;;39.45;;
13255;SDS011;37913;48.370;10.930;2023-05-10T10:29:48;89.90;;;40.78;;
13255;SDS011;37913;48.370;10.930;2023-05-10T10:32:25;87.63;;;40.38;;
13255;SDS011;37913;48.370;10.930;2023-05-10T10:34:57;103.25;;;43.42;;
13255;SDS011;37913;48.370;10.930;2023-05-10T10:40:27;93.15;;;42.80;;
13255;SDS011;37913;48.370;10.930;2023-05-10T10:42:56;98.80;;;44.05;;
13255;SDS011;37913;48.370;10.930;2023-05-10T10:45:24;86.13;;;41.90;;
13255;SDS011;37913;48.370;10.930;2023-05-10T10:50:55;114.50;;;47.83;;
13255;SDS011;37913;48.370;10.930;2023-05-10T10:53:26;84.70;;;42.15;;
13255;SDS011;37913;48.370;10.930;2023-05-10T10:56:02;94.03;;;43.75;;
13255;SDS011;37913;48.370;10.930;2023-05-10T10:58:33;87.70;;;43.00;;
13255;SDS011;37913;48.370;10.930;2023-05-10T11:01:13;95.03;;;43.45;;
13255;SDS011;37913;48.370;10.930;2023-05-10T11:03:54;91.20;;;43.33;;
13255;SDS011;37913;48.370;10.930;2023-05-10T11:06:36;85.03;;;41.97;;
13255;SDS011;37913;48.370;10.930;2023-05-10T11:09:07;86.35;;;41.85;;
13255;SDS011;37913;48.370;10.930;2023-05-10T11:11:37;88.25;;;42.50;;
13255;SDS011;37913;48.370;10.930;2023-05-10T11:14:15;85.70;;;42.05;;
13255;SDS011;37913;48.370;10.930;2023-05-10T11:16:46;86.78;;;42.22;;
13255;SDS011;37913;48.370;10.930;2023-05-10T11:19:13;87.97;;;44.65;;
13255;SDS011;37913;48.370;10.930;2023-05-10T11:21:46;90.85;;;45.63;;
13255;SDS011;37913;48.370;10.930;2023-05-10T11:24:17;81.72;;;42.20;;
13255;SDS011;37913;48.370;10.930;2023-05-10T11:26:45;99.00;;;45.92;;
13255;SDS011;37913;48.370;10.930;2023-05-10T11:29:12;91.13;;;43.65;;
13255;SDS011;37913;48.370;10.930;2023-05-10T11:31:43;104.55;;;47.05;;
13255;SDS011;37913;48.370;10.930;2023-05-10T11:34:11;98.05;;;45.05;;
13255;SDS011;37913;48.370;10.930;2023-05-10T11:36:50;87.53;;;43.50;;
13255;SDS011;37913;48.370;10.930;2023-05-10T11:39:20;90.38;;;43.78;;
13255;SDS011;37913;48.370;10.930;2023-05-10T11:41:47;82.43;;;41.75;;
13255;SDS011;37913;48.370;10.930;2023-05-10T11:44:15;91.05;;;43.75;;
13255;SDS011;37913;48.370;10.930;2023-05-10T11:46:42;89.53;;;44.03;;
13255;SDS011;37913;48.370;10.930;2023-05-10T11:49:09;96.07;;;45.08;;
13255;SDS011;37913;48.370;10.930;2023-05-10T11:51:38;89.95;;;43.45;;
13255;SDS011;37913;48.370;10.930;2023-05-10T11:54:07;89.30;;;43.33;;
13255;SDS011;37913;48.370;10.930;2023-05-10T11:56:37;94.55;;;43.95;;
13255;SDS011;37913;48.370;10.930;2023-05-10T11:59:05;89.50;;;42.67;;
13255;SDS011;37913;48.370;10.930;2023-05-10T12:01:34;81.10;;;41.15;;
13255;SDS011;37913;48.370;10.930;2023-05-10T12:04:01;90.05;;;42.60;;
13255;SDS011;37913;48.370;10.930;2023-05-10T12:06:29;94.80;;;43.85;;
13255;SDS011;37913;48.370;10.930;2023-05-10T12:08:57;94.13;;;43.58;;
13255;SDS011;37913;48.370;10.930;2023-05-10T12:11:24;89.60;;;43.42;;
13255;SDS011;37913;48.370;10.930;2023-05-10T12:13:54;81.07;;;42.15;;
13255;SDS011;37913;48.370;10.930;2023-05-10T12:16:22;87.53;;;43.47;;
13255;SDS011;37913;48.370;10.930;2023-05-10T12:18:55;93.32;;;44.72;;
13255;SDS011;37913;48.370;10.930;2023-05-10T12:21:24;89.38;;;43.63;;
13255;SDS011;37913;48.370;10.930;2023-05-10T12:23:52;93.43;;;44.10;;
13255;SDS011;37913;48.370;10.930;2023-05-10T12:26:21;89.75;;;42.63;;
13255;SDS011;37913;48.370;10.930;2023-05-10T12:28:48;89.35;;;41.60;;
13255;SDS011;37913;48.370;10.930;2023-05-10T12:31:16;90.70;;;41.97;;
13255;SDS011;37913;48.370;10.930;2023-05-10T12:33:43;88.38;;;41.60;;
13255;SDS011;37913;48.370;10.930;2023-05-10T12:36:13;106.80;;;44.40;;
13255;SDS011;37913;48.370;10.930;2023-05-10T12:38:43;85.03;;;40.72;;
13255;SDS011;37913;48.370;10.930;2023-05-10T12:41:13;87.47;;;40.85;;
13255;SDS011;37913;48.370;10.930;2023-05-10T12:43:41;87.78;;;41.55;;
13255;SDS011;37913;48.370;10.930;2023-05-10T12:46:08;75.72;;;38.75;;
13255;SDS011;37913;48.370;10.930;2023-05-10T12:48:39;83.55;;;40.70;;
13255;SDS011;37913;48.370;10.930;2023-05-10T12:51:07;99.50;;;43.35;;
13255;SDS011;37913;48.370;10.930;2023-05-10T12:53:37;87.10;;;42.00;;
13255;SDS011;37913;48.370;10.930;2023-05-10T12:56:04;85.75;;;41.80;;
13255;SDS011;37913;48.370;10.930;2023-05-10T12:58:31;81.80;;;40.13;;
13255;SDS011;37913;48.370;10.930;2023-05-10T13:00:58;86.30;;;41.55;;
13255;SDS011;37913;48.370;10.930;2023-05-10T13:03:26;79.93;;;40.00;;
13255;SDS011;37913;48.370;10.930;2023-05-10T13:05:54;85.57;;;40.78;;
13255;SDS011;37913;48.370;10.930;2023-05-10T13:08:21;81.20;;;38.70;;
13255;SDS011;37913;48.370;10.930;2023-05-10T13:10:48;86.57;;;40.22;;
13255;SDS011;37913;48.370;10.930;2023-05-10T13:13:15;71.07;;;36.60;;
13255;SDS011;37913;48.370;10.930;2023-05-10T13:15:43;89.22;;;40.22;;
13255;SDS011;37913;48.370;10.930;2023-05-10T13:18:10;82.90;;;38.75;;
13255;SDS011;37913;48.370;10.930;2023-05-10T13:20:37;95.57;;;41.42;;
13255;SDS011;37913;48.370;10.930;2023-05-10T13:23:05;93.13;;;40.83;;
13255;SDS011;37913;48.370;10.930;2023-05-10T13:25:32;84.40;;;38.92;;
13255;SDS011;37913;48.370;10.930;2023-05-10T13:27:59;88.20;;;40.05;;
13255;SDS011;37913;48.370;10.930;2023-05-10T13:30:26;90.95;;;40.10;;
13255;SDS011;37913;48.370;10.930;2023-05-10T13:32:55;84.57;;;39.35;;
13255;SDS011;37913;48.370;10.930;2023-05-10T13:35:23;85.85;;;38.72;;
13255;SDS011;37913;48.370;10.930;2023-05-10T13:37:50;92.45;;;40.38;;
13255;SDS011;37913;48.370;10.930;2023-05-10T13:40:19;100.28;;;41.90;;
13255;SDS011;37913;48.370;10.930;2023-05-10T13:42:49;84.68;;;38.58;;
13255;SDS011;37913;48.370;10.930;2023-05-10T13:45:17;82.32;;;38.33;;
13255;SDS011;37913;48.370;10.930;2023-05-10T13:47:44;93.88;;;41.22;;
13255;SDS011;37913;48.370;10.930;2023-05-10T13:50:11;87.93;;;39.63;;
13255;SDS011;37913;48.370;10.930;2023-05-10T13:52:38;90.20;;;40.50;;
13255;SDS011;37913;48.370;10.930;2023-05-10T13:55:05;97.70;;;42.78;;
13255;SDS011;37913;48.370;10.930;2023-05-10T13:57:34;90.82;;;40.35;;
13255;SDS011;37913;48.370;10.930;2023-05-10T14:00:03;95.25;;;41.55;;
13255;SDS011;37913;48.370;10.930;2023-05-10T14:02:31;92.43;;;40.70;;
13255;SDS011;37913;48.370;10.930;2023-05-10T14:04:57;99.00;;;41.85;;
13255;SDS011;37913;48.370;10.930;2023-05-10T14:07:25;87.70;;;39.80;;
13255;SDS011;37913;48.370;10.930;2023-05-10T14:09:52;84.80;;;38.97;;
13255;SDS011;37913;48.370;10.930;2023-05-10T14:12:20;88.97;;;38.58;;
13255;SDS011;37913;48.370;10.930;2023-05-10T14:14:48;91.90;;;38.95;;
13255;SDS011;37913;48.370;10.930;2023-05-10T14:17:15;82.10;;;36.85;;
13255;SDS011;37913;48.370;10.930;2023-05-10T14:19:42;78.80;;;36.20;;
13255;SDS011;37913;48.370;10.930;2023-05-10T14:22:09;78.07;;;35.80;;
13255;SDS011;37913;48.370;10.930;2023-05-10T14:24:36;93.30;;;38.53;;
13255;SDS011;37913;48.370;10.930;2023-05-10T14:27:04;94.10;;;38.30;;
13255;SDS011;37913;48.370;10.930;2023-05-10T14:29:31;87.30;;;36.53;;